sensor_id;sensor_type;location;lat;lon;timestamp;P1;durP1;ratioP1;P2;durP2;ratioP2
2404;SDS011;1213;43.206;27.922;2023-11-19T00:01:45;2.43;;;1.90;;
2404;SDS011;1213;43.206;27.922;2023-11-19T00:04:12;1.30;;;1.20;;
2404;SDS011;1213;43.206;27.922;2023-11-19T00:06:38;2.03;;;1.87;;
2404;SDS011;1213;43.206;27.922;2023-11-19T00:09:04;1.93;;;1.60;;
2404;SDS011;1213;43.206;27.922;2023-11-19T00:11:30;1.50;;;1.40;;
2404;SDS011;1213;43.206;27.922;2023-11-19T00:13:55;1.63;;;1.40;;
2404;SDS011;1213;43.206;27.922;2023-11-19T00:16:20;1.57;;;1.30;;
2404;SDS011;1213;43.206;27.922;2023-11-19T00:18:46;1.90;;;1.30;;
2404;SDS011;1213;43.206;27.922;2023-11-19T00:21:11;1.63;;;1.50;;
2404;SDS011;1213;43.206;27.922;2023-11-19T00:23:37;1.60;;;1.17;;
2404;SDS011;1213;43.206;27.922;2023-11-19T00:26:03;2.00;;;1.70;;
2404;SDS011;1213;43.206;27.922;2023-11-19T00:28:31;1.17;;;1.07;;
2404;SDS011;1213;43.206;27.922;2023-11-19T00:30:58;2.67;;;1.20;;
2404;SDS011;1213;43.206;27.922;2023-11-19T00:33:23;1.40;;;1.30;;
2404;SDS011;1213;43.206;27.922;2023-11-19T00:35:49;1.30;;;1.20;;
2404;SDS011;1213;43.206;27.922;2023-11-19T00:38:15;1.20;;;1.10;;
2404;SDS011;1213;43.206;27.922;2023-11-19T00:40:41;3.83;;;2.40;;
2404;SDS011;1213;43.206;27.922;2023-11-19T00:43:06;1.63;;;1.40;;
2404;SDS011;1213;43.206;27.922;2023-11-19T00:45:32;6.60;;;1.93;;
2404;SDS011;1213;43.206;27.922;2023-11-19T00:47:58;1.83;;;1.73;;
2404;SDS011;1213;43.206;27.922;2023-11-19T00:50:25;2.47;;;2.27;;
2404;SDS011;1213;43.206;27.922;2023-11-19T00:52:50;2.00;;;1.17;;
2404;SDS011;1213;43.206;27.922;2023-11-19T00:55:16;2.20;;;2.00;;
2404;SDS011;1213;43.206;27.922;2023-11-19T00:57:42;1.50;;;1.40;;
2404;SDS011;1213;43.206;27.922;2023-11-19T01:00:08;2.90;;;1.53;;
2404;SDS011;1213;43.206;27.922;2023-11-19T01:02:43;3.57;;;2.20;;
2404;SDS011;1213;43.206;27.922;2023-11-19T01:05:09;2.40;;;2.03;;
2404;SDS011;1213;43.206;27.922;2023-11-19T01:07:35;2.37;;;2.17;;
2404;SDS011;1213;43.206;27.922;2023-11-19T01:10:00;2.87;;;2.40;;
2404;SDS011;1213;43.206;27.922;2023-11-19T01:12:26;2.63;;;2.43;;
2404;SDS011;1213;43.206;27.922;2023-11-19T01:14:51;2.47;;;2.20;;
2404;SDS011;1213;43.206;27.922;2023-11-19T01:17:16;2.80;;;1.77;;
2404;SDS011;1213;43.206;27.922;2023-11-19T01:19:42;3.93;;;2.60;;
2404;SDS011;1213;43.206;27.922;2023-11-19T01:22:07;2.93;;;2.60;;
2404;SDS011;1213;43.206;27.922;2023-11-19T01:24:33;2.33;;;2.10;;
2404;SDS011;1213;43.206;27.922;2023-11-19T01:26:59;2.20;;;2.10;;
2404;SDS011;1213;43.206;27.922;2023-11-19T01:29:25;2.40;;;1.67;;
2404;SDS011;1213;43.206;27.922;2023-11-19T01:31:51;2.60;;;2.17;;
2404;SDS011;1213;43.206;27.922;2023-11-19T01:34:16;2.23;;;1.77;;
2404;SDS011;1213;43.206;27.922;2023-11-19T01:36:42;3.97;;;3.10;;
2404;SDS011;1213;43.206;27.922;2023-11-19T01:39:07;2.50;;;2.00;;
2404;SDS011;1213;43.206;27.922;2023-11-19T01:41:36;2.53;;;2.33;;
2404;SDS011;1213;43.206;27.922;2023-11-19T01:44:01;4.30;;;3.90;;
2404;SDS011;1213;43.206;27.922;2023-11-19T01:46:27;2.47;;;1.87;;
2404;SDS011;1213;43.206;27.922;2023-11-19T01:48:53;3.17;;;1.90;;
2404;SDS011;1213;43.206;27.922;2023-11-19T01:51:19;3.80;;;2.40;;
2404;SDS011;1213;43.206;27.922;2023-11-19T01:53:46;3.63;;;2.93;;
2404;SDS011;1213;43.206;27.922;2023-11-19T01:56:13;2.33;;;1.60;;
2404;SDS011;1213;43.206;27.922;2023-11-19T01:58:40;2.13;;;1.63;;
2404;SDS011;1213;43.206;27.922;2023-11-19T02:01:08;3.33;;;2.40;;
2404;SDS011;1213;43.206;27.922;2023-11-19T02:03:36;2.77;;;2.37;;
2404;SDS011;1213;43.206;27.922;2023-11-19T02:06:01;3.30;;;3.00;;
2404;SDS011;1213;43.206;27.922;2023-11-19T02:08:28;1.90;;;1.53;;
2404;SDS011;1213;43.206;27.922;2023-11-19T02:10:55;3.53;;;1.90;;
2404;SDS011;1213;43.206;27.922;2023-11-19T02:13:23;1.83;;;1.70;;
2404;SDS011;1213;43.206;27.922;2023-11-19T02:15:51;4.17;;;3.10;;
2404;SDS011;1213;43.206;27.922;2023-11-19T02:18:24;3.63;;;2.00;;
2404;SDS011;1213;43.206;27.922;2023-11-19T02:20:53;3.13;;;2.67;;
2404;SDS011;1213;43.206;27.922;2023-11-19T02:23:19;3.60;;;3.23;;
2404;SDS011;1213;43.206;27.922;2023-11-19T02:28:25;5.07;;;2.63;;
2404;SDS011;1213;43.206;27.922;2023-11-19T02:30:51;2.67;;;2.47;;
2404;SDS011;1213;43.206;27.922;2023-11-19T02:33:18;2.07;;;1.83;;
2404;SDS011;1213;43.206;27.922;2023-11-19T02:35:43;3.70;;;2.27;;
2404;SDS011;1213;43.206;27.922;2023-11-19T02:38:10;3.70;;;2.77;;
2404;SDS011;1213;43.206;27.922;2023-11-19T02:40:36;5.17;;;3.30;;
2404;SDS011;1213;43.206;27.922;2023-11-19T02:43:01;2.10;;;1.90;;
2404;SDS011;1213;43.206;27.922;2023-11-19T02:45:30;3.93;;;3.63;;
2404;SDS011;1213;43.206;27.922;2023-11-19T02:47:56;4.50;;;3.20;;
2404;SDS011;1213;43.206;27.922;2023-11-19T02:50:21;2.57;;;2.37;;
2404;SDS011;1213;43.206;27.922;2023-11-19T02:52:50;4.07;;;2.53;;
2404;SDS011;1213;43.206;27.922;2023-11-19T02:55:21;4.87;;;3.37;;
2404;SDS011;1213;43.206;27.922;2023-11-19T02:57:48;2.77;;;2.13;;
2404;SDS011;1213;43.206;27.922;2023-11-19T03:00:18;2.97;;;2.43;;
2404;SDS011;1213;43.206;27.922;2023-11-19T03:02:48;3.70;;;2.93;;
2404;SDS011;1213;43.206;27.922;2023-11-19T03:05:23;5.93;;;2.90;;
2404;SDS011;1213;43.206;27.922;2023-11-19T03:07:49;5.20;;;3.50;;
2404;SDS011;1213;43.206;27.922;2023-11-19T03:10:15;8.07;;;4.57;;
2404;SDS011;1213;43.206;27.922;2023-11-19T03:12:40;5.23;;;4.63;;
2404;SDS011;1213;43.206;27.922;2023-11-19T03:15:07;5.50;;;4.50;;
2404;SDS011;1213;43.206;27.922;2023-11-19T03:17:35;3.53;;;3.20;;
2404;SDS011;1213;43.206;27.922;2023-11-19T03:20:07;5.57;;;4.27;;
2404;SDS011;1213;43.206;27.922;2023-11-19T03:22:42;7.33;;;5.33;;
2404;SDS011;1213;43.206;27.922;2023-11-19T03:25:09;5.83;;;4.63;;
2404;SDS011;1213;43.206;27.922;2023-11-19T03:27:38;4.70;;;3.60;;
2404;SDS011;1213;43.206;27.922;2023-11-19T03:30:04;7.57;;;4.47;;
2404;SDS011;1213;43.206;27.922;2023-11-19T03:32:31;6.20;;;3.87;;
2404;SDS011;1213;43.206;27.922;2023-11-19T03:34:57;6.57;;;3.73;;
2404;SDS011;1213;43.206;27.922;2023-11-19T03:37:23;8.17;;;4.83;;
2404;SDS011;1213;43.206;27.922;2023-11-19T03:39:49;9.67;;;6.13;;
2404;SDS011;1213;43.206;27.922;2023-11-19T03:42:14;9.10;;;5.27;;
2404;SDS011;1213;43.206;27.922;2023-11-19T03:44:40;8.93;;;5.63;;
2404;SDS011;1213;43.206;27.922;2023-11-19T03:47:05;7.20;;;4.60;;
2404;SDS011;1213;43.206;27.922;2023-11-19T03:49:31;9.03;;;5.03;;
2404;SDS011;1213;43.206;27.922;2023-11-19T03:51:57;5.57;;;4.40;;
2404;SDS011;1213;43.206;27.922;2023-11-19T03:54:22;11.77;;;6.27;;
2404;SDS011;1213;43.206;27.922;2023-11-19T03:56:48;11.03;;;5.90;;
2404;SDS011;1213;43.206;27.922;2023-11-19T03:59:14;7.70;;;5.97;;
2404;SDS011;1213;43.206;27.922;2023-11-19T04:01:40;8.90;;;5.50;;
2404;SDS011;1213;43.206;27.922;2023-11-19T04:04:06;9.70;;;5.60;;
2404;SDS011;1213;43.206;27.922;2023-11-19T04:06:32;9.50;;;6.17;;
2404;SDS011;1213;43.206;27.922;2023-11-19T04:08:57;11.60;;;7.40;;
2404;SDS011;1213;43.206;27.922;2023-11-19T04:11:22;11.13;;;5.93;;
2404;SDS011;1213;43.206;27.922;2023-11-19T04:13:48;6.07;;;4.53;;
2404;SDS011;1213;43.206;27.922;2023-11-19T04:16:14;9.03;;;6.20;;
2404;SDS011;1213;43.206;27.922;2023-11-19T04:18:40;5.73;;;4.77;;
2404;SDS011;1213;43.206;27.922;2023-11-19T04:21:06;5.60;;;5.03;;
2404;SDS011;1213;43.206;27.922;2023-11-19T04:23:32;12.10;;;7.73;;
2404;SDS011;1213;43.206;27.922;2023-11-19T04:25:58;6.93;;;6.20;;
2404;SDS011;1213;43.206;27.922;2023-11-19T04:28:24;9.70;;;5.63;;
2404;SDS011;1213;43.206;27.922;2023-11-19T04:30:52;10.70;;;5.90;;
2404;SDS011;1213;43.206;27.922;2023-11-19T04:33:17;6.53;;;5.33;;
2404;SDS011;1213;43.206;27.922;2023-11-19T04:35:42;10.27;;;7.10;;
2404;SDS011;1213;43.206;27.922;2023-11-19T04:38:08;5.93;;;4.30;;
2404;SDS011;1213;43.206;27.922;2023-11-19T04:40:33;6.60;;;5.80;;
2404;SDS011;1213;43.206;27.922;2023-11-19T04:42:59;10.63;;;7.20;;
2404;SDS011;1213;43.206;27.922;2023-11-19T04:45:24;7.30;;;5.80;;
2404;SDS011;1213;43.206;27.922;2023-11-19T04:47:50;11.83;;;8.50;;
2404;SDS011;1213;43.206;27.922;2023-11-19T04:50:15;8.27;;;6.23;;
2404;SDS011;1213;43.206;27.922;2023-11-19T04:52:41;6.80;;;4.70;;
2404;SDS011;1213;43.206;27.922;2023-11-19T04:55:09;8.07;;;5.03;;
2404;SDS011;1213;43.206;27.922;2023-11-19T04:57:36;8.30;;;7.13;;
2404;SDS011;1213;43.206;27.922;2023-11-19T05:00:02;6.40;;;5.77;;
2404;SDS011;1213;43.206;27.922;2023-11-19T05:02:30;8.70;;;6.07;;
2404;SDS011;1213;43.206;27.922;2023-11-19T05:04:55;10.87;;;6.47;;
2404;SDS011;1213;43.206;27.922;2023-11-19T05:07:21;7.47;;;5.60;;
2404;SDS011;1213;43.206;27.922;2023-11-19T05:09:46;10.20;;;5.70;;
2404;SDS011;1213;43.206;27.922;2023-11-19T05:12:12;10.57;;;7.50;;
2404;SDS011;1213;43.206;27.922;2023-11-19T05:14:37;9.43;;;6.70;;
2404;SDS011;1213;43.206;27.922;2023-11-19T05:17:03;5.07;;;4.03;;
2404;SDS011;1213;43.206;27.922;2023-11-19T05:19:29;12.37;;;7.80;;
2404;SDS011;1213;43.206;27.922;2023-11-19T05:21:54;7.40;;;4.90;;
2404;SDS011;1213;43.206;27.922;2023-11-19T05:24:20;10.93;;;7.83;;
2404;SDS011;1213;43.206;27.922;2023-11-19T05:26:45;10.03;;;6.20;;
2404;SDS011;1213;43.206;27.922;2023-11-19T05:29:12;9.50;;;5.77;;
2404;SDS011;1213;43.206;27.922;2023-11-19T05:31:38;14.60;;;8.17;;
2404;SDS011;1213;43.206;27.922;2023-11-19T05:34:03;9.70;;;6.57;;
2404;SDS011;1213;43.206;27.922;2023-11-19T05:36:29;9.73;;;6.67;;
2404;SDS011;1213;43.206;27.922;2023-11-19T05:38:55;11.77;;;6.33;;
2404;SDS011;1213;43.206;27.922;2023-11-19T05:41:20;10.60;;;6.03;;
2404;SDS011;1213;43.206;27.922;2023-11-19T05:43:46;14.90;;;4.83;;
2404;SDS011;1213;43.206;27.922;2023-11-19T05:46:11;12.90;;;7.07;;
2404;SDS011;1213;43.206;27.922;2023-11-19T05:48:38;9.00;;;6.30;;
2404;SDS011;1213;43.206;27.922;2023-11-19T05:51:03;11.17;;;7.87;;
2404;SDS011;1213;43.206;27.922;2023-11-19T05:53:30;4.07;;;3.37;;
2404;SDS011;1213;43.206;27.922;2023-11-19T05:55:56;7.10;;;5.47;;
2404;SDS011;1213;43.206;27.922;2023-11-19T05:58:25;11.13;;;6.53;;
2404;SDS011;1213;43.206;27.922;2023-11-19T06:00:53;11.00;;;6.67;;
2404;SDS011;1213;43.206;27.922;2023-11-19T06:03:22;8.37;;;5.73;;
2404;SDS011;1213;43.206;27.922;2023-11-19T06:05:48;7.33;;;4.10;;
2404;SDS011;1213;43.206;27.922;2023-11-19T06:08:14;7.13;;;4.90;;
2404;SDS011;1213;43.206;27.922;2023-11-19T06:10:40;8.40;;;6.23;;
2404;SDS011;1213;43.206;27.922;2023-11-19T06:13:05;20.30;;;4.50;;
2404;SDS011;1213;43.206;27.922;2023-11-19T06:15:31;7.67;;;5.80;;
2404;SDS011;1213;43.206;27.922;2023-11-19T06:17:58;6.50;;;5.30;;
2404;SDS011;1213;43.206;27.922;2023-11-19T06:20:26;8.70;;;5.10;;
2404;SDS011;1213;43.206;27.922;2023-11-19T06:22:54;6.00;;;3.07;;
2404;SDS011;1213;43.206;27.922;2023-11-19T06:25:19;6.77;;;5.07;;
2404;SDS011;1213;43.206;27.922;2023-11-19T06:27:46;4.10;;;3.33;;
2404;SDS011;1213;43.206;27.922;2023-11-19T06:30:12;4.70;;;4.20;;
2404;SDS011;1213;43.206;27.922;2023-11-19T06:32:37;5.53;;;4.23;;
2404;SDS011;1213;43.206;27.922;2023-11-19T06:35:03;4.50;;;4.07;;
2404;SDS011;1213;43.206;27.922;2023-11-19T06:37:30;5.97;;;4.37;;
2404;SDS011;1213;43.206;27.922;2023-11-19T06:39:55;5.33;;;3.87;;
2404;SDS011;1213;43.206;27.922;2023-11-19T06:42:21;6.57;;;4.63;;
2404;SDS011;1213;43.206;27.922;2023-11-19T06:44:47;5.83;;;4.90;;
2404;SDS011;1213;43.206;27.922;2023-11-19T06:47:12;6.53;;;5.10;;
2404;SDS011;1213;43.206;27.922;2023-11-19T06:49:37;7.70;;;4.90;;
2404;SDS011;1213;43.206;27.922;2023-11-19T06:52:03;6.13;;;4.40;;
2404;SDS011;1213;43.206;27.922;2023-11-19T06:54:29;8.10;;;4.90;;
2404;SDS011;1213;43.206;27.922;2023-11-19T06:56:55;6.37;;;4.70;;
2404;SDS011;1213;43.206;27.922;2023-11-19T06:59:22;3.13;;;2.67;;
2404;SDS011;1213;43.206;27.922;2023-11-19T07:01:48;7.07;;;5.30;;
2404;SDS011;1213;43.206;27.922;2023-11-19T07:04:13;4.97;;;3.90;;
2404;SDS011;1213;43.206;27.922;2023-11-19T07:06:39;3.90;;;3.53;;
2404;SDS011;1213;43.206;27.922;2023-11-19T07:09:08;8.70;;;4.53;;
2404;SDS011;1213;43.206;27.922;2023-11-19T07:11:40;6.33;;;5.40;;
2404;SDS011;1213;43.206;27.922;2023-11-19T07:14:07;7.50;;;5.03;;
2404;SDS011;1213;43.206;27.922;2023-11-19T07:16:33;5.87;;;5.27;;
2404;SDS011;1213;43.206;27.922;2023-11-19T07:19:03;8.87;;;5.57;;
2404;SDS011;1213;43.206;27.922;2023-11-19T07:21:30;6.27;;;3.97;;
2404;SDS011;1213;43.206;27.922;2023-11-19T07:23:55;8.03;;;4.90;;
2404;SDS011;1213;43.206;27.922;2023-11-19T07:26:21;7.87;;;5.07;;
2404;SDS011;1213;43.206;27.922;2023-11-19T07:28:48;7.60;;;4.80;;
2404;SDS011;1213;43.206;27.922;2023-11-19T07:31:16;7.97;;;5.50;;
2404;SDS011;1213;43.206;27.922;2023-11-19T07:33:45;5.20;;;4.50;;
2404;SDS011;1213;43.206;27.922;2023-11-19T07:36:12;7.20;;;5.70;;
2404;SDS011;1213;43.206;27.922;2023-11-19T07:38:38;7.07;;;5.03;;
2404;SDS011;1213;43.206;27.922;2023-11-19T07:41:04;6.20;;;5.60;;
2404;SDS011;1213;43.206;27.922;2023-11-19T07:43:31;4.90;;;4.20;;
2404;SDS011;1213;43.206;27.922;2023-11-19T07:45:57;5.47;;;4.93;;
2404;SDS011;1213;43.206;27.922;2023-11-19T07:48:24;7.77;;;5.27;;
2404;SDS011;1213;43.206;27.922;2023-11-19T07:50:50;6.10;;;5.47;;
2404;SDS011;1213;43.206;27.922;2023-11-19T07:53:17;8.17;;;6.30;;
2404;SDS011;1213;43.206;27.922;2023-11-19T07:55:43;8.40;;;5.27;;
2404;SDS011;1213;43.206;27.922;2023-11-19T07:58:09;5.77;;;4.30;;
2404;SDS011;1213;43.206;27.922;2023-11-19T08:00:35;7.80;;;5.20;;
2404;SDS011;1213;43.206;27.922;2023-11-19T08:03:01;7.83;;;4.50;;
2404;SDS011;1213;43.206;27.922;2023-11-19T08:05:26;7.60;;;6.90;;
2404;SDS011;1213;43.206;27.922;2023-11-19T08:07:52;8.87;;;4.73;;
2404;SDS011;1213;43.206;27.922;2023-11-19T08:10:18;5.77;;;5.27;;
2404;SDS011;1213;43.206;27.922;2023-11-19T08:12:44;6.50;;;4.57;;
2404;SDS011;1213;43.206;27.922;2023-11-19T08:15:10;6.83;;;5.20;;
2404;SDS011;1213;43.206;27.922;2023-11-19T08:17:35;6.53;;;5.80;;
2404;SDS011;1213;43.206;27.922;2023-11-19T08:20:01;5.97;;;4.40;;
2404;SDS011;1213;43.206;27.922;2023-11-19T08:22:27;9.53;;;5.77;;
2404;SDS011;1213;43.206;27.922;2023-11-19T08:24:54;4.60;;;3.73;;
2404;SDS011;1213;43.206;27.922;2023-11-19T08:27:20;5.80;;;5.20;;
2404;SDS011;1213;43.206;27.922;2023-11-19T08:29:51;8.60;;;5.10;;
2404;SDS011;1213;43.206;27.922;2023-11-19T08:32:19;6.73;;;5.00;;
2404;SDS011;1213;43.206;27.922;2023-11-19T08:34:45;5.80;;;4.53;;
2404;SDS011;1213;43.206;27.922;2023-11-19T08:37:10;7.57;;;5.73;;
2404;SDS011;1213;43.206;27.922;2023-11-19T08:39:36;6.43;;;5.50;;
2404;SDS011;1213;43.206;27.922;2023-11-19T08:42:03;9.07;;;5.83;;
2404;SDS011;1213;43.206;27.922;2023-11-19T08:44:28;7.30;;;4.63;;
2404;SDS011;1213;43.206;27.922;2023-11-19T08:46:54;8.07;;;7.27;;
2404;SDS011;1213;43.206;27.922;2023-11-19T08:49:19;8.70;;;6.47;;
2404;SDS011;1213;43.206;27.922;2023-11-19T08:51:45;7.53;;;5.93;;
2404;SDS011;1213;43.206;27.922;2023-11-19T08:54:10;4.83;;;4.30;;
2404;SDS011;1213;43.206;27.922;2023-11-19T08:56:37;8.47;;;4.70;;
2404;SDS011;1213;43.206;27.922;2023-11-19T08:59:04;8.70;;;5.97;;
2404;SDS011;1213;43.206;27.922;2023-11-19T09:01:30;7.30;;;5.13;;
2404;SDS011;1213;43.206;27.922;2023-11-19T09:03:55;8.97;;;6.30;;
2404;SDS011;1213;43.206;27.922;2023-11-19T09:06:21;7.50;;;5.70;;
2404;SDS011;1213;43.206;27.922;2023-11-19T09:08:48;8.83;;;7.67;;
2404;SDS011;1213;43.206;27.922;2023-11-19T09:11:13;6.50;;;5.10;;
2404;SDS011;1213;43.206;27.922;2023-11-19T09:13:38;4.83;;;4.40;;
2404;SDS011;1213;43.206;27.922;2023-11-19T09:16:04;4.30;;;3.70;;
2404;SDS011;1213;43.206;27.922;2023-11-19T09:18:30;8.40;;;4.83;;
2404;SDS011;1213;43.206;27.922;2023-11-19T09:20:57;6.57;;;5.00;;
2404;SDS011;1213;43.206;27.922;2023-11-19T09:23:23;6.57;;;5.10;;
2404;SDS011;1213;43.206;27.922;2023-11-19T09:25:50;6.23;;;4.97;;
2404;SDS011;1213;43.206;27.922;2023-11-19T09:28:16;6.50;;;5.50;;
2404;SDS011;1213;43.206;27.922;2023-11-19T09:30:41;17.43;;;4.80;;
2404;SDS011;1213;43.206;27.922;2023-11-19T09:33:07;7.47;;;4.60;;
2404;SDS011;1213;43.206;27.922;2023-11-19T09:35:32;5.77;;;4.00;;
2404;SDS011;1213;43.206;27.922;2023-11-19T09:37:58;9.87;;;5.90;;
2404;SDS011;1213;43.206;27.922;2023-11-19T09:40:24;6.17;;;5.60;;
2404;SDS011;1213;43.206;27.922;2023-11-19T09:42:49;5.40;;;4.23;;
2404;SDS011;1213;43.206;27.922;2023-11-19T09:45:16;10.57;;;5.43;;
2404;SDS011;1213;43.206;27.922;2023-11-19T09:47:43;9.20;;;4.17;;
2404;SDS011;1213;43.206;27.922;2023-11-19T09:50:11;6.40;;;4.90;;
2404;SDS011;1213;43.206;27.922;2023-11-19T09:52:42;6.83;;;4.63;;
2404;SDS011;1213;43.206;27.922;2023-11-19T09:55:08;8.07;;;6.20;;
2404;SDS011;1213;43.206;27.922;2023-11-19T09:57:34;8.30;;;5.07;;
2404;SDS011;1213;43.206;27.922;2023-11-19T10:00:02;5.67;;;4.47;;
2404;SDS011;1213;43.206;27.922;2023-11-19T10:02:31;7.03;;;5.30;;
2404;SDS011;1213;43.206;27.922;2023-11-19T10:04:58;6.53;;;5.83;;
2404;SDS011;1213;43.206;27.922;2023-11-19T10:07:26;7.60;;;4.33;;
2404;SDS011;1213;43.206;27.922;2023-11-19T10:09:52;7.07;;;5.30;;
2404;SDS011;1213;43.206;27.922;2023-11-19T10:12:18;11.37;;;5.37;;
2404;SDS011;1213;43.206;27.922;2023-11-19T10:14:43;6.37;;;5.20;;
2404;SDS011;1213;43.206;27.922;2023-11-19T10:17:11;5.17;;;4.67;;
2404;SDS011;1213;43.206;27.922;2023-11-19T10:19:36;5.60;;;4.50;;
2404;SDS011;1213;43.206;27.922;2023-11-19T10:22:05;7.10;;;5.17;;
2404;SDS011;1213;43.206;27.922;2023-11-19T10:24:31;5.83;;;4.90;;
2404;SDS011;1213;43.206;27.922;2023-11-19T10:26:59;10.40;;;6.90;;
2404;SDS011;1213;43.206;27.922;2023-11-19T10:29:26;9.57;;;6.07;;
2404;SDS011;1213;43.206;27.922;2023-11-19T10:31:57;7.10;;;6.40;;
2404;SDS011;1213;43.206;27.922;2023-11-19T10:34:27;11.10;;;7.10;;
2404;SDS011;1213;43.206;27.922;2023-11-19T10:36:53;7.73;;;6.10;;
2404;SDS011;1213;43.206;27.922;2023-11-19T10:39:18;6.57;;;5.07;;
2404;SDS011;1213;43.206;27.922;2023-11-19T10:41:46;5.90;;;4.60;;
2404;SDS011;1213;43.206;27.922;2023-11-19T10:44:11;6.90;;;4.83;;
2404;SDS011;1213;43.206;27.922;2023-11-19T10:46:40;6.07;;;4.20;;
2404;SDS011;1213;43.206;27.922;2023-11-19T10:49:09;4.30;;;3.90;;
2404;SDS011;1213;43.206;27.922;2023-11-19T10:51:35;7.50;;;5.60;;
2404;SDS011;1213;43.206;27.922;2023-11-19T10:54:02;4.93;;;4.40;;
2404;SDS011;1213;43.206;27.922;2023-11-19T10:56:32;6.67;;;4.63;;
2404;SDS011;1213;43.206;27.922;2023-11-19T10:58:59;6.03;;;4.70;;
2404;SDS011;1213;43.206;27.922;2023-11-19T11:01:32;8.67;;;4.97;;
2404;SDS011;1213;43.206;27.922;2023-11-19T11:04:03;5.20;;;4.70;;
2404;SDS011;1213;43.206;27.922;2023-11-19T11:06:29;9.97;;;5.00;;
2404;SDS011;1213;43.206;27.922;2023-11-19T11:08:55;4.63;;;4.13;;
2404;SDS011;1213;43.206;27.922;2023-11-19T11:11:22;5.57;;;4.13;;
2404;SDS011;1213;43.206;27.922;2023-11-19T11:13:48;6.60;;;4.87;;
2404;SDS011;1213;43.206;27.922;2023-11-19T11:16:18;7.23;;;4.63;;
2404;SDS011;1213;43.206;27.922;2023-11-19T11:18:45;5.20;;;3.57;;
2404;SDS011;1213;43.206;27.922;2023-11-19T11:21:15;7.97;;;5.50;;
2404;SDS011;1213;43.206;27.922;2023-11-19T11:23:53;3.50;;;3.10;;
2404;SDS011;1213;43.206;27.922;2023-11-19T11:35:02;8.83;;;4.40;;
2404;SDS011;1213;43.206;27.922;2023-11-19T11:37:45;5.20;;;3.60;;
2404;SDS011;1213;43.206;27.922;2023-11-19T11:40:16;5.03;;;3.23;;
2404;SDS011;1213;43.206;27.922;2023-11-19T11:42:43;3.83;;;3.53;;
2404;SDS011;1213;43.206;27.922;2023-11-19T11:45:13;43.23;;;6.30;;
2404;SDS011;1213;43.206;27.922;2023-11-19T11:55:34;7.13;;;5.77;;
2404;SDS011;1213;43.206;27.922;2023-11-19T11:58:04;11.50;;;6.43;;
2404;SDS011;1213;43.206;27.922;2023-11-19T12:00:37;4.47;;;3.97;;
2404;SDS011;1213;43.206;27.922;2023-11-19T12:03:04;4.50;;;3.90;;
2404;SDS011;1213;43.206;27.922;2023-11-19T12:05:32;6.43;;;5.37;;
2404;SDS011;1213;43.206;27.922;2023-11-19T12:08:11;7.20;;;4.03;;
2404;SDS011;1213;43.206;27.922;2023-11-19T12:10:52;9.43;;;5.20;;
2404;SDS011;1213;43.206;27.922;2023-11-19T12:13:19;7.23;;;5.37;;
2404;SDS011;1213;43.206;27.922;2023-11-19T12:18:31;7.27;;;5.27;;
2404;SDS011;1213;43.206;27.922;2023-11-19T12:20:57;5.07;;;4.20;;
2404;SDS011;1213;43.206;27.922;2023-11-19T12:23:27;8.60;;;5.37;;
2404;SDS011;1213;43.206;27.922;2023-11-19T12:25:54;8.10;;;5.27;;
2404;SDS011;1213;43.206;27.922;2023-11-19T12:28:20;8.50;;;6.33;;
2404;SDS011;1213;43.206;27.922;2023-11-19T12:30:46;5.67;;;3.73;;
2404;SDS011;1213;43.206;27.922;2023-11-19T12:33:13;5.63;;;4.33;;
2404;SDS011;1213;43.206;27.922;2023-11-19T12:38:18;6.10;;;4.50;;
2404;SDS011;1213;43.206;27.922;2023-11-19T12:41:05;9.53;;;5.83;;
2404;SDS011;1213;43.206;27.922;2023-11-19T12:43:32;8.83;;;6.30;;
2404;SDS011;1213;43.206;27.922;2023-11-19T12:45:59;7.13;;;6.10;;
2404;SDS011;1213;43.206;27.922;2023-11-19T12:48:25;8.90;;;6.20;;
2404;SDS011;1213;43.206;27.922;2023-11-19T12:50:54;13.10;;;5.60;;
2404;SDS011;1213;43.206;27.922;2023-11-19T12:53:22;4.67;;;4.20;;
2404;SDS011;1213;43.206;27.922;2023-11-19T12:55:49;7.13;;;6.17;;
2404;SDS011;1213;43.206;27.922;2023-11-19T12:58:32;8.93;;;7.50;;
2404;SDS011;1213;43.206;27.922;2023-11-19T13:00:59;11.03;;;5.80;;
2404;SDS011;1213;43.206;27.922;2023-11-19T13:03:31;13.50;;;7.83;;
2404;SDS011;1213;43.206;27.922;2023-11-19T13:06:10;7.13;;;5.20;;
2404;SDS011;1213;43.206;27.922;2023-11-19T13:11:04;7.73;;;5.27;;
2404;SDS011;1213;43.206;27.922;2023-11-19T13:13:31;7.57;;;4.83;;
2404;SDS011;1213;43.206;27.922;2023-11-19T13:16:04;11.17;;;7.03;;
2404;SDS011;1213;43.206;27.922;2023-11-19T13:18:34;8.60;;;6.03;;
2404;SDS011;1213;43.206;27.922;2023-11-19T13:21:00;14.10;;;7.53;;
2404;SDS011;1213;43.206;27.922;2023-11-19T13:23:25;9.53;;;7.23;;
2404;SDS011;1213;43.206;27.922;2023-11-19T13:25:51;4.80;;;4.10;;
2404;SDS011;1213;43.206;27.922;2023-11-19T13:28:16;10.10;;;6.20;;
2404;SDS011;1213;43.206;27.922;2023-11-19T13:30:42;9.90;;;7.47;;
2404;SDS011;1213;43.206;27.922;2023-11-19T13:33:07;7.60;;;5.43;;
2404;SDS011;1213;43.206;27.922;2023-11-19T13:35:35;9.10;;;7.37;;
2404;SDS011;1213;43.206;27.922;2023-11-19T13:38:01;7.80;;;5.33;;
2404;SDS011;1213;43.206;27.922;2023-11-19T13:40:27;5.57;;;4.50;;
2404;SDS011;1213;43.206;27.922;2023-11-19T13:42:53;7.93;;;6.20;;
2404;SDS011;1213;43.206;27.922;2023-11-19T13:45:19;6.30;;;5.67;;
2404;SDS011;1213;43.206;27.922;2023-11-19T13:47:45;11.40;;;7.23;;
2404;SDS011;1213;43.206;27.922;2023-11-19T13:50:12;7.67;;;5.20;;
2404;SDS011;1213;43.206;27.922;2023-11-19T13:52:40;9.60;;;5.10;;
2404;SDS011;1213;43.206;27.922;2023-11-19T13:55:08;7.10;;;6.17;;
2404;SDS011;1213;43.206;27.922;2023-11-19T13:57:34;8.83;;;5.80;;
2404;SDS011;1213;43.206;27.922;2023-11-19T14:00:04;10.20;;;6.83;;
2404;SDS011;1213;43.206;27.922;2023-11-19T14:02:42;4.93;;;4.47;;
2404;SDS011;1213;43.206;27.922;2023-11-19T14:05:08;8.00;;;6.10;;
2404;SDS011;1213;43.206;27.922;2023-11-19T14:07:35;11.23;;;7.77;;
2404;SDS011;1213;43.206;27.922;2023-11-19T14:10:01;10.20;;;5.73;;
2404;SDS011;1213;43.206;27.922;2023-11-19T14:12:27;9.13;;;5.20;;
2404;SDS011;1213;43.206;27.922;2023-11-19T14:14:53;6.17;;;5.60;;
2404;SDS011;1213;43.206;27.922;2023-11-19T14:17:19;5.50;;;4.70;;
2404;SDS011;1213;43.206;27.922;2023-11-19T14:19:45;8.50;;;4.90;;
2404;SDS011;1213;43.206;27.922;2023-11-19T14:22:10;8.00;;;6.60;;
2404;SDS011;1213;43.206;27.922;2023-11-19T14:24:37;8.43;;;6.57;;
2404;SDS011;1213;43.206;27.922;2023-11-19T14:27:04;11.43;;;7.83;;
2404;SDS011;1213;43.206;27.922;2023-11-19T14:29:29;5.30;;;4.43;;
2404;SDS011;1213;43.206;27.922;2023-11-19T14:31:55;5.77;;;4.03;;
2404;SDS011;1213;43.206;27.922;2023-11-19T14:34:21;7.20;;;5.60;;
2404;SDS011;1213;43.206;27.922;2023-11-19T14:36:47;8.97;;;7.20;;
2404;SDS011;1213;43.206;27.922;2023-11-19T14:39:12;7.37;;;5.73;;
2404;SDS011;1213;43.206;27.922;2023-11-19T14:41:38;8.20;;;5.10;;
2404;SDS011;1213;43.206;27.922;2023-11-19T14:44:04;12.20;;;6.20;;
2404;SDS011;1213;43.206;27.922;2023-11-19T14:46:30;11.63;;;7.30;;
2404;SDS011;1213;43.206;27.922;2023-11-19T14:48:56;11.30;;;8.30;;
2404;SDS011;1213;43.206;27.922;2023-11-19T14:51:21;8.97;;;6.33;;
2404;SDS011;1213;43.206;27.922;2023-11-19T14:53:47;12.30;;;6.20;;
2404;SDS011;1213;43.206;27.922;2023-11-19T14:56:13;6.47;;;3.70;;
2404;SDS011;1213;43.206;27.922;2023-11-19T14:58:38;6.17;;;5.30;;
2404;SDS011;1213;43.206;27.922;2023-11-19T15:01:04;7.53;;;6.50;;
2404;SDS011;1213;43.206;27.922;2023-11-19T15:03:30;10.87;;;7.03;;
2404;SDS011;1213;43.206;27.922;2023-11-19T15:05:56;8.30;;;6.83;;
2404;SDS011;1213;43.206;27.922;2023-11-19T15:08:21;8.33;;;5.97;;
2404;SDS011;1213;43.206;27.922;2023-11-19T15:10:47;12.03;;;7.17;;
2404;SDS011;1213;43.206;27.922;2023-11-19T15:13:12;14.23;;;9.20;;
2404;SDS011;1213;43.206;27.922;2023-11-19T15:15:38;11.20;;;7.73;;
2404;SDS011;1213;43.206;27.922;2023-11-19T15:18:04;7.20;;;5.10;;
2404;SDS011;1213;43.206;27.922;2023-11-19T15:20:30;7.97;;;6.37;;
2404;SDS011;1213;43.206;27.922;2023-11-19T15:22:56;14.20;;;6.40;;
2404;SDS011;1213;43.206;27.922;2023-11-19T15:25:22;10.33;;;6.73;;